Time;durP1;ratioP1;P1;durP2;ratioP2;P2;SDS_P1;SDS_P2;PMS_P1;PMS_P2;Temp;Humidity;BMP_temperature;BMP_pressure;BME280_temperature;BME280_humidity;BME280_pressure;Samples;Min_cycle;Max_cycle;Signal;HPM_P1;HPM_P2
2021/07/16 00:00:43;;;;;;;10.82;5.93;;;;;;;;;;5114969;28;20028;-69
2021/07/16 00:03:10;;;;;;;9.38;5.05;;;;;;;;;;5114757;28;20027;-69
2021/07/16 00:05:36;;;;;;;8.30;5.53;;;;;;;;;;5114231;28;20464;-69
2021/07/16 00:08:02;;;;;;;7.70;4.63;;;;;;;;;;5113182;28;20055;-69
2021/07/16 00:10:28;;;;;;;6.55;4.45;;;;;;;;;;5114573;28;20532;-69
2021/07/16 00:12:54;;;;;;;10.55;5.25;;;;;;;;;;5114156;28;20028;-69
2021/07/16 00:15:21;;;;;;;9.23;4.97;;;;;;;;;;5114496;28;20507;-69
2021/07/16 00:17:48;;;;;;;8.60;5.57;;;;;;;;;;5114021;28;20296;-69
2021/07/16 00:20:15;;;;;;;7.80;5.28;;;;;;;;;;5114469;28;20015;-70
2021/07/16 00:23:18;;;;;;;8.35;4.72;;;;;;;;;;5110616;27;20512;-68
2021/07/16 00:25:44;;;;;;;8.55;5.07;;;;;;;;;;5109944;28;20032;-68
2021/07/16 00:28:10;;;;;;;7.70;4.72;;;;;;;;;;5110349;28;20094;-68
2021/07/16 00:30:37;;;;;;;9.88;5.57;;;;;;;;;;5110386;28;20099;-68
2021/07/16 00:33:03;;;;;;;7.13;5.05;;;;;;;;;;5109800;28;20020;-68
2021/07/16 00:35:30;;;;;;;6.82;4.93;;;;;;;;;;5110297;28;20031;-69
2021/07/16 00:37:56;;;;;;;11.27;5.22;;;;;;;;;;5110187;28;20506;-68
2021/07/16 00:40:22;;;;;;;8.05;4.82;;;;;;;;;;5109936;28;20030;-68
2021/07/16 00:42:49;;;;;;;9.13;5.65;;;;;;;;;;5110144;28;20035;-68
2021/07/16 00:45:15;;;;;;;8.45;5.50;;;;;;;;;;5110100;28;20065;-69
2021/07/16 00:49:03;;;;;;;8.93;5.05;;;;;;;;;;5069825;28;20833;-68
2021/07/16 00:51:29;;;;;;;8.07;5.78;;;;;;;;;;5069858;28;20025;-68
2021/07/16 00:53:55;;;;;;;13.32;5.45;;;;;;;;;;5068047;28;20028;-68
2021/07/16 00:56:21;;;;;;;8.65;5.22;;;;;;;;;;5069791;28;20020;-68
2021/07/16 00:58:48;;;;;;;7.95;4.90;;;;;;;;;;5069696;28;20025;-68
2021/07/16 01:03:02;;;;;;;9.57;5.55;;;;;;;;;;5070037;28;20445;-68
2021/07/16 01:07:35;;;;;;;9.23;5.30;;;;;;;;;;5069598;28;20392;-68
2021/07/16 01:10:02;;;;;;;9.68;5.97;;;;;;;;;;5069870;28;20513;-68
2021/07/16 01:12:30;;;;;;;11.35;5.72;;;;;;;;;;5069750;28;20055;-70
2021/07/16 01:14:57;;;;;;;8.50;5.63;;;;;;;;;;5068126;28;20475;-69
2021/07/16 01:17:23;;;;;;;10.05;5.78;;;;;;;;;;5069700;28;20477;-69
2021/07/16 01:20:25;;;;;;;10.13;5.95;;;;;;;;;;5130881;27;20402;-68
2021/07/16 01:22:52;;;;;;;8.02;5.18;;;;;;;;;;5110243;28;20091;-70
2021/07/16 01:25:19;;;;;;;10.80;5.22;;;;;;;;;;5110401;28;20034;-68
2021/07/16 01:27:47;;;;;;;9.65;5.22;;;;;;;;;;5110325;28;20093;-67
2021/07/16 01:30:14;;;;;;;10.23;5.63;;;;;;;;;;5091678;28;20508;-70
2021/07/16 01:32:41;;;;;;;9.32;5.05;;;;;;;;;;5110271;28;20121;-68
2021/07/16 01:35:08;;;;;;;7.40;4.70;;;;;;;;;;5109842;28;20506;-68
2021/07/16 01:37:37;;;;;;;7.97;5.10;;;;;;;;;;5110121;28;20028;-68
2021/07/16 01:40:05;;;;;;;8.40;5.57;;;;;;;;;;5110048;28;20483;-69
2021/07/16 01:42:38;;;;;;;8.25;4.88;;;;;;;;;;5091603;28;20380;-69
2021/07/16 01:45:05;;;;;;;9.65;5.03;;;;;;;;;;5110062;28;20499;-69
2021/07/16 01:47:32;;;;;;;10.55;5.85;;;;;;;;;;5109921;28;20016;-69
2021/07/16 01:51:41;;;;;;;8.23;4.85;;;;;;;;;;5110433;27;20412;-68
2021/07/16 01:54:07;;;;;;;11.27;5.57;;;;;;;;;;5110402;28;20024;-68
2021/07/16 01:56:33;;;;;;;9.88;5.57;;;;;;;;;;5109964;28;20093;-68
2021/07/16 02:00:20;;;;;;;10.55;4.90;;;;;;;;;;5110453;27;20735;-68
2021/07/16 02:02:57;;;;;;;8.38;5.68;;;;;;;;;;5110635;28;20337;-69
2021/07/16 02:05:24;;;;;;;10.68;7.00;;;;;;;;;;5108723;28;20028;-68
2021/07/16 02:07:51;;;;;;;12.25;7.30;;;;;;;;;;5110366;28;20046;-68
2021/07/16 02:10:21;;;;;;;10.52;6.30;;;;;;;;;;5109916;28;20020;-68
2021/07/16 02:12:47;;;;;;;13.13;6.63;;;;;;;;;;5110241;28;20076;-68
2021/07/16 02:15:21;;;;;;;9.25;6.28;;;;;;;;;;5110223;28;20042;-68
2021/07/16 02:17:48;;;;;;;12.65;5.43;;;;;;;;;;5109679;28;20032;-69
2021/07/16 02:20:21;;;;;;;8.25;5.55;;;;;;;;;;5110139;28;20328;-68
2021/07/16 02:22:47;;;;;;;14.85;6.28;;;;;;;;;;5110493;28;20028;-68
2021/07/16 02:25:14;;;;;;;7.78;4.95;;;;;;;;;;5108458;28;20055;-68
2021/07/16 02:27:41;;;;;;;7.90;5.05;;;;;;;;;;5108671;28;20024;-68
2021/07/16 02:30:08;;;;;;;10.63;6.00;;;;;;;;;;5108956;28;20380;-68
2021/07/16 02:32:34;;;;;;;13.02;6.22;;;;;;;;;;5109524;28;20402;-68
2021/07/16 02:35:00;;;;;;;9.40;5.28;;;;;;;;;;5109905;28;20028;-68
2021/07/16 02:37:27;;;;;;;11.93;6.15;;;;;;;;;;5109851;28;20048;-68
2021/07/16 02:39:53;;;;;;;9.18;5.63;;;;;;;;;;5107962;28;20067;-68
2021/07/16 02:42:19;;;;;;;11.18;4.90;;;;;;;;;;5108448;28;20023;-69
2021/07/16 02:44:46;;;;;;;8.15;5.10;;;;;;;;;;5108386;28;20054;-68
2021/07/16 02:47:12;;;;;;;9.65;5.28;;;;;;;;;;5109186;28;20023;-69
2021/07/16 02:49:38;;;;;;;8.55;5.40;;;;;;;;;;5109558;28;20031;-68
2021/07/16 02:52:05;;;;;;;6.68;4.60;;;;;;;;;;5109514;28;20171;-69
2021/07/16 02:55:13;;;;;;;10.73;5.63;;;;;;;;;;5069865;28;20421;-68
2021/07/16 02:57:39;;;;;;;8.73;5.47;;;;;;;;;;5068523;28;20087;-68
2021/07/16 03:00:08;;;;;;;7.82;5.18;;;;;;;;;;5069468;28;20032;-68
2021/07/16 03:02:39;;;;;;;6.97;4.43;;;;;;;;;;5069971;28;20027;-68
2021/07/16 03:05:05;;;;;;;6.80;4.55;;;;;;;;;;5070002;28;20020;-68
2021/07/16 03:07:31;;;;;;;7.95;4.70;;;;;;;;;;5069308;28;20516;-68
2021/07/16 03:09:58;;;;;;;7.05;4.45;;;;;;;;;;5069660;28;20021;-68
2021/07/16 03:13:39;;;;;;;7.57;4.55;;;;;;;;;;5069500;28;20405;-68
2021/07/16 03:16:05;;;;;;;8.98;5.25;;;;;;;;;;5069893;28;20090;-68
2021/07/16 03:18:32;;;;;;;9.02;5.70;;;;;;;;;;5069809;28;20063;-68
2021/07/16 03:20:58;;;;;;;8.38;5.07;;;;;;;;;;5069407;28;20079;-69
2021/07/16 03:23:24;;;;;;;9.05;4.85;;;;;;;;;;5068577;28;20024;-68
2021/07/16 03:25:50;;;;;;;8.63;4.78;;;;;;;;;;5069695;28;20124;-68
2021/07/16 03:28:16;;;;;;;8.23;4.50;;;;;;;;;;5068010;28;20021;-68
2021/07/16 03:30:42;;;;;;;10.77;5.80;;;;;;;;;;5069580;28;20024;-68
2021/07/16 03:33:09;;;;;;;8.18;5.03;;;;;;;;;;5069539;28;20033;-68
2021/07/16 03:35:35;;;;;;;8.85;4.70;;;;;;;;;;5067758;28;20402;-69
2021/07/16 03:38:01;;;;;;;8.50;4.82;;;;;;;;;;5069406;28;20028;-68
2021/07/16 03:40:29;;;;;;;9.68;4.93;;;;;;;;;;5069459;28;20035;-68
2021/07/16 03:42:55;;;;;;;10.65;5.10;;;;;;;;;;5069100;28;20025;-68
2021/07/16 03:45:22;;;;;;;7.00;4.95;;;;;;;;;;5069479;28;20017;-68
2021/07/16 03:47:49;;;;;;;7.82;4.70;;;;;;;;;;5069211;28;20036;-68
2021/07/16 03:50:17;;;;;;;7.43;4.75;;;;;;;;;;5068770;28;20051;-68
2021/07/16 03:52:43;;;;;;;9.10;4.68;;;;;;;;;;5069007;28;20082;-68
2021/07/16 03:55:10;;;;;;;8.80;5.05;;;;;;;;;;5069181;28;20641;-68
2021/07/16 03:57:41;;;;;;;8.05;4.50;;;;;;;;;;5067386;28;20029;-68
2021/07/16 04:00:07;;;;;;;8.40;4.70;;;;;;;;;;5067716;28;20071;-68
2021/07/16 04:02:33;;;;;;;9.20;5.18;;;;;;;;;;5068986;28;20049;-68
2021/07/16 04:05:00;;;;;;;10.18;5.35;;;;;;;;;;5068695;28;20064;-68
2021/07/16 04:07:28;;;;;;;8.70;5.20;;;;;;;;;;5067614;28;20071;-68
2021/07/16 04:09:55;;;;;;;10.38;5.07;;;;;;;;;;5067397;28;20031;-68
2021/07/16 04:12:21;;;;;;;8.98;5.13;;;;;;;;;;5068399;28;20054;-68
2021/07/16 04:14:49;;;;;;;8.82;4.53;;;;;;;;;;5068912;28;20096;-68
2021/07/16 04:17:16;;;;;;;7.25;4.65;;;;;;;;;;5067282;28;20028;-68
2021/07/16 04:19:43;;;;;;;13.32;5.75;;;;;;;;;;5068604;28;20021;-68
2021/07/16 04:22:10;;;;;;;7.75;4.43;;;;;;;;;;5068580;28;20040;-71
2021/07/16 04:24:39;;;;;;;10.95;4.82;;;;;;;;;;5057265;28;20021;-71
2021/07/16 04:27:06;;;;;;;7.88;4.95;;;;;;;;;;5055306;28;20044;-70
2021/07/16 04:29:33;;;;;;;10.13;6.05;;;;;;;;;;5055212;28;20107;-70
2021/07/16 04:32:00;;;;;;;11.13;5.85;;;;;;;;;;5053383;28;20033;-70
2021/07/16 04:34:29;;;;;;;8.75;5.57;;;;;;;;;;5055102;28;20083;-70
2021/07/16 04:36:55;;;;;;;12.00;5.45;;;;;;;;;;5055027;28;20028;-71
2021/07/16 04:39:22;;;;;;;8.40;5.13;;;;;;;;;;5054633;28;20032;-70
2021/07/16 04:41:48;;;;;;;9.10;5.43;;;;;;;;;;5055024;28;20033;-70
2021/07/16 04:44:14;;;;;;;7.22;4.93;;;;;;;;;;5055123;28;20020;-70
2021/07/16 04:46:40;;;;;;;11.55;5.78;;;;;;;;;;5054599;28;20470;-70
2021/07/16 04:49:07;;;;;;;9.70;6.28;;;;;;;;;;5054850;28;20032;-71
2021/07/16 04:52:44;;;;;;;10.73;7.05;;;;;;;;;;5110103;27;20799;-68
2021/07/16 04:55:10;;;;;;;10.55;6.45;;;;;;;;;;5110451;28;20042;-68
2021/07/16 04:57:36;;;;;;;9.30;6.43;;;;;;;;;;5110401;28;20081;-68
2021/07/16 05:00:06;;;;;;;10.38;6.30;;;;;;;;;;5110052;28;20503;-68
2021/07/16 05:02:33;;;;;;;12.10;6.60;;;;;;;;;;5109096;28;20546;-68
2021/07/16 05:04:59;;;;;;;11.00;6.40;;;;;;;;;;5114155;28;20115;-68
2021/07/16 05:07:25;;;;;;;12.30;7.38;;;;;;;;;;5110684;28;20441;-67
2021/07/16 05:09:51;;;;;;;9.10;6.75;;;;;;;;;;5121956;28;20455;-70
2021/07/16 05:13:24;;;;;;;11.55;6.65;;;;;;;;;;5110768;27;20500;-69
2021/07/16 05:15:51;;;;;;;8.68;6.15;;;;;;;;;;5110405;28;20030;-68
2021/07/16 05:18:17;;;;;;;10.60;6.85;;;;;;;;;;5110365;28;20379;-69
2021/07/16 05:20:44;;;;;;;12.25;6.75;;;;;;;;;;5108758;28;20058;-69
2021/07/16 05:23:10;;;;;;;9.65;6.88;;;;;;;;;;5109219;28;20506;-70
2021/07/16 05:25:36;;;;;;;10.73;6.47;;;;;;;;;;5110322;28;20024;-69
2021/07/16 05:28:02;;;;;;;13.05;7.70;;;;;;;;;;5109873;28;20092;-69
2021/07/16 05:30:29;;;;;;;14.65;7.03;;;;;;;;;;5110084;28;20024;-69
2021/07/16 05:32:55;;;;;;;12.13;7.03;;;;;;;;;;5110056;28;20078;-69
2021/07/16 05:35:21;;;;;;;10.13;6.93;;;;;;;;;;5118399;28;20024;-70
2021/07/16 05:37:48;;;;;;;9.35;6.35;;;;;;;;;;5130170;28;20023;-70
2021/07/16 05:40:15;;;;;;;10.55;7.32;;;;;;;;;;5130606;28;20071;-69
2021/07/16 05:42:41;;;;;;;12.65;7.13;;;;;;;;;;5130205;28;20026;-69
2021/07/16 05:45:08;;;;;;;14.02;7.57;;;;;;;;;;5129140;28;20476;-68
2021/07/16 05:47:34;;;;;;;12.70;7.97;;;;;;;;;;5130291;28;20031;-69
2021/07/16 05:50:00;;;;;;;10.75;7.45;;;;;;;;;;5129983;28;20055;-70
2021/07/16 05:52:27;;;;;;;12.55;7.57;;;;;;;;;;5113010;28;20040;-70
2021/07/16 05:54:54;;;;;;;11.38;5.75;;;;;;;;;;5109488;28;20087;-70
2021/07/16 05:57:20;;;;;;;9.68;6.22;;;;;;;;;;5107920;28;20024;-69
2021/07/16 05:59:47;;;;;;;12.45;7.47;;;;;;;;;;5109484;28;20012;-69
2021/07/16 06:02:13;;;;;;;9.88;6.85;;;;;;;;;;5109642;28;20051;-69
2021/07/16 06:04:39;;;;;;;11.63;7.25;;;;;;;;;;5109246;28;20476;-68
2021/07/16 06:07:05;;;;;;;12.10;7.15;;;;;;;;;;5109319;28;20069;-69
2021/07/16 06:09:31;;;;;;;12.10;6.93;;;;;;;;;;5108993;28;20033;-68
2021/07/16 06:11:58;;;;;;;17.75;7.55;;;;;;;;;;5107753;28;20532;-69
2021/07/16 06:14:24;;;;;;;12.43;8.77;;;;;;;;;;5109284;28;20509;-68
2021/07/16 06:16:50;;;;;;;9.93;7.13;;;;;;;;;;5108737;28;20032;-68
2021/07/16 06:19:17;;;;;;;13.77;7.45;;;;;;;;;;5109079;28;20016;-69
2021/07/16 06:21:44;;;;;;;11.23;7.35;;;;;;;;;;5109120;28;20028;-69
2021/07/16 06:24:10;;;;;;;10.52;7.63;;;;;;;;;;5098385;28;20420;-69
2021/07/16 06:26:36;;;;;;;10.85;7.53;;;;;;;;;;5095221;28;20041;-68
2021/07/16 06:29:05;;;;;;;10.85;7.55;;;;;;;;;;5095231;28;20098;-68
2021/07/16 06:31:32;;;;;;;10.32;6.47;;;;;;;;;;5094745;28;20034;-69
2021/07/16 06:33:58;;;;;;;11.38;7.15;;;;;;;;;;5095276;28;20127;-69
2021/07/16 06:36:24;;;;;;;14.05;5.93;;;;;;;;;;5095136;28;20024;-69
2021/07/16 06:38:50;;;;;;;9.82;6.13;;;;;;;;;;5094718;28;20028;-70
2021/07/16 06:41:17;;;;;;;8.20;5.53;;;;;;;;;;5095180;28;20506;-70
2021/07/16 06:43:43;;;;;;;8.35;5.47;;;;;;;;;;5095263;28;20484;-70
2021/07/16 06:46:12;;;;;;;11.07;5.80;;;;;;;;;;5094757;28;20176;-69
2021/07/16 06:48:39;;;;;;;9.13;5.80;;;;;;;;;;5095027;28;20103;-69
2021/07/16 06:51:06;;;;;;;10.48;6.07;;;;;;;;;;5094846;28;20104;-69
2021/07/16 06:53:32;;;;;;;9.82;5.35;;;;;;;;;;5094668;28;20488;-69
2021/07/16 06:55:58;;;;;;;10.57;5.72;;;;;;;;;;5094870;28;20028;-70
2021/07/16 06:58:24;;;;;;;9.25;5.30;;;;;;;;;;5094738;28;20032;-70
2021/07/16 07:00:50;;;;;;;10.43;6.07;;;;;;;;;;5094120;28;20055;-68
2021/07/16 07:03:17;;;;;;;8.05;4.80;;;;;;;;;;5094751;28;20072;-70
2021/07/16 07:05:43;;;;;;;9.75;4.97;;;;;;;;;;5093090;28;20154;-70
2021/07/16 07:08:09;;;;;;;12.43;5.97;;;;;;;;;;5094595;28;20024;-69
2021/07/16 07:10:35;;;;;;;13.18;5.53;;;;;;;;;;5094662;28;20535;-70
2021/07/16 07:13:05;;;;;;;10.65;6.28;;;;;;;;;;5091042;28;20059;-69
2021/07/16 07:15:32;;;;;;;13.82;5.55;;;;;;;;;;5092823;28;20020;-69
2021/07/16 07:17:58;;;;;;;8.15;4.57;;;;;;;;;;5094249;28;20032;-69
2021/07/16 07:20:24;;;;;;;9.20;5.40;;;;;;;;;;5094029;28;20065;-69
2021/07/16 07:22:50;;;;;;;8.88;4.78;;;;;;;;;;5094424;28;20028;-69
2021/07/16 07:25:17;;;;;;;11.35;4.68;;;;;;;;;;5094516;28;20024;-69
2021/07/16 07:27:43;;;;;;;7.85;5.00;;;;;;;;;;5093871;28;20044;-68
2021/07/16 07:30:09;;;;;;;7.72;4.75;;;;;;;;;;5092935;28;20035;-68
2021/07/16 07:32:35;;;;;;;8.50;4.00;;;;;;;;;;5094124;28;20362;-68
2021/07/16 07:35:02;;;;;;;9.50;4.05;;;;;;;;;;5091393;28;20035;-68
2021/07/16 07:37:28;;;;;;;13.77;4.35;;;;;;;;;;5093999;28;20026;-68
2021/07/16 07:39:54;;;;;;;6.85;4.53;;;;;;;;;;5093866;28;20099;-68
2021/07/16 07:42:21;;;;;;;12.20;5.13;;;;;;;;;;5093598;28;20031;-69
2021/07/16 07:44:48;;;;;;;9.05;4.68;;;;;;;;;;5072879;28;20133;-69
2021/07/16 07:47:15;;;;;;;7.45;3.78;;;;;;;;;;5073847;28;20539;-69
2021/07/16 07:49:41;;;;;;;10.77;4.55;;;;;;;;;;5073131;28;20035;-69
2021/07/16 07:52:07;;;;;;;8.43;4.28;;;;;;;;;;5073388;28;20042;-69
2021/07/16 07:54:34;;;;;;;7.65;4.78;;;;;;;;;;5072144;28;20035;-69
2021/07/16 07:57:00;;;;;;;10.48;4.78;;;;;;;;;;5073009;28;20025;-69
2021/07/16 07:59:26;;;;;;;7.45;4.30;;;;;;;;;;5073401;28;20376;-69
2021/07/16 08:01:53;;;;;;;11.52;5.25;;;;;;;;;;5073011;28;20111;-68
2021/07/16 08:04:19;;;;;;;10.13;4.47;;;;;;;;;;5073191;28;20017;-69
2021/07/16 08:06:45;;;;;;;9.27;4.40;;;;;;;;;;5073259;28;20499;-69
2021/07/16 08:09:11;;;;;;;7.47;4.22;;;;;;;;;;5072916;28;20035;-68
2021/07/16 08:11:37;;;;;;;10.80;3.55;;;;;;;;;;5072820;28;20106;-69
2021/07/16 08:14:04;;;;;;;10.32;4.35;;;;;;;;;;5073148;28;20028;-69
2021/07/16 08:16:30;;;;;;;6.35;4.18;;;;;;;;;;5071542;28;20380;-69
2021/07/16 08:18:56;;;;;;;8.50;4.00;;;;;;;;;;5073056;28;20028;-69
2021/07/16 08:21:24;;;;;;;7.35;4.07;;;;;;;;;;5071888;28;20028;-69
2021/07/16 08:23:50;;;;;;;7.18;3.72;;;;;;;;;;5070753;28;20086;-70
2021/07/16 08:26:18;;;;;;;8.05;3.83;;;;;;;;;;5071275;28;20040;-69
2021/07/16 08:28:45;;;;;;;10.80;4.07;;;;;;;;;;5072688;28;20067;-69
2021/07/16 08:31:11;;;;;;;8.88;4.15;;;;;;;;;;5071648;28;20021;-68
2021/07/16 08:33:37;;;;;;;8.20;4.00;;;;;;;;;;5070944;28;20477;-69
2021/07/16 08:36:03;;;;;;;9.23;4.15;;;;;;;;;;5070886;28;20032;-69
2021/07/16 08:38:30;;;;;;;11.02;3.60;;;;;;;;;;5070335;28;20025;-69
2021/07/16 08:40:56;;;;;;;7.15;3.60;;;;;;;;;;5071034;28;20019;-69
2021/07/16 08:43:24;;;;;;;9.15;3.85;;;;;;;;;;5069493;28;20025;-69
2021/07/16 08:45:52;;;;;;;8.23;3.47;;;;;;;;;;5070232;28;20138;-68
2021/07/16 08:48:18;;;;;;;6.20;3.63;;;;;;;;;;5071761;28;20070;-68
2021/07/16 08:50:45;;;;;;;6.30;3.50;;;;;;;;;;5072499;28;20029;-68
2021/07/16 08:53:12;;;;;;;7.75;3.75;;;;;;;;;;5072115;28;20452;-69
2021/07/16 08:55:41;;;;;;;8.38;3.60;;;;;;;;;;5072462;28;20024;-69
2021/07/16 08:58:07;;;;;;;6.30;3.35;;;;;;;;;;5071138;28;20070;-69
2021/07/16 09:00:35;;;;;;;16.73;4.63;;;;;;;;;;5072251;28;20024;-68
2021/07/16 09:03:02;;;;;;;10.48;3.92;;;;;;;;;;5072388;28;20477;-69
2021/07/16 09:05:40;;;;;;;7.35;4.03;;;;;;;;;;5071938;28;20107;-69
2021/07/16 09:08:16;;;;;;;5.85;3.55;;;;;;;;;;5072421;28;20044;-69
2021/07/16 09:10:52;;;;;;;6.05;3.42;;;;;;;;;;5071768;28;20028;-69
2021/07/16 09:13:19;;;;;;;8.38;3.40;;;;;;;;;;5071799;28;20489;-69
2021/07/16 09:15:51;;;;;;;9.90;3.67;;;;;;;;;;5072172;28;20021;-69
2021/07/16 09:18:21;;;;;;;7.38;3.20;;;;;;;;;;5072319;28;20056;-68
2021/07/16 09:20:50;;;;;;;6.32;3.75;;;;;;;;;;5071965;28;20028;-68
2021/07/16 09:23:18;;;;;;;6.60;3.80;;;;;;;;;;5070913;28;20350;-68
2021/07/16 09:25:45;;;;;;;6.97;3.33;;;;;;;;;;5072211;28;20028;-68
2021/07/16 09:28:24;;;;;;;6.15;4.05;;;;;;;;;;5070420;28;20017;-69
2021/07/16 09:30:51;;;;;;;7.90;3.95;;;;;;;;;;5071852;28;20027;-69
2021/07/16 09:33:17;;;;;;;9.25;3.72;;;;;;;;;;5070424;28;20146;-67
2021/07/16 09:35:44;;;;;;;5.88;3.28;;;;;;;;;;5071393;28;20103;-69
2021/07/16 09:38:14;;;;;;;11.88;3.58;;;;;;;;;;5072191;28;20036;-68
2021/07/16 09:40:46;;;;;;;4.93;3.30;;;;;;;;;;5070458;28;20024;-69
2021/07/16 09:43:26;;;;;;;7.10;3.05;;;;;;;;;;5070774;28;20370;-69
2021/07/16 09:45:52;;;;;;;5.65;3.05;;;;;;;;;;5070986;28;20028;-69
2021/07/16 09:48:27;;;;;;;6.38;3.58;;;;;;;;;;5071647;28;20021;-68
2021/07/16 09:51:08;;;;;;;7.55;3.90;;;;;;;;;;5070351;28;20032;-68
2021/07/16 09:53:54;;;;;;;6.18;3.03;;;;;;;;;;5070643;28;20086;-68
2021/07/16 09:56:24;;;;;;;5.25;3.05;;;;;;;;;;5063724;28;20040;-69
2021/07/16 09:59:11;;;;;;;6.70;3.50;;;;;;;;;;5070778;28;20028;-68
2021/07/16 10:01:39;;;;;;;5.43;2.53;;;;;;;;;;5075362;28;20024;-69
2021/07/16 10:04:17;;;;;;;6.85;3.05;;;;;;;;;;5075621;28;20029;-69
2021/07/16 10:06:43;;;;;;;12.10;3.67;;;;;;;;;;5075571;28;20028;-69
2021/07/16 10:09:09;;;;;;;7.65;3.65;;;;;;;;;;5074993;28;20156;-68
2021/07/16 10:11:36;;;;;;;7.32;3.33;;;;;;;;;;5075250;28;20036;-68
2021/07/16 10:14:03;;;;;;;6.03;3.50;;;;;;;;;;5075331;28;20036;-68
2021/07/16 10:16:29;;;;;;;8.70;3.63;;;;;;;;;;5074935;28;20423;-68
2021/07/16 10:18:56;;;;;;;9.35;3.85;;;;;;;;;;5073921;28;20024;-69
2021/07/16 10:21:22;;;;;;;15.57;5.38;;;;;;;;;;5075518;28;20020;-68
2021/07/16 10:23:50;;;;;;;6.90;3.15;;;;;;;;;;5073922;28;20451;-69
2021/07/16 10:26:16;;;;;;;6.82;2.95;;;;;;;;;;5075287;28;20017;-69
2021/07/16 10:28:43;;;;;;;10.23;4.28;;;;;;;;;;5075652;28;20427;-70
2021/07/16 10:31:28;;;;;;;9.93;3.30;;;;;;;;;;5074577;28;20043;-69
2021/07/16 10:33:54;;;;;;;4.93;3.22;;;;;;;;;;5075007;28;20021;-69
2021/07/16 10:36:39;;;;;;;9.10;2.92;;;;;;;;;;5075002;28;20031;-69
2021/07/16 10:39:06;;;;;;;6.10;3.30;;;;;;;;;;5075120;28;20021;-69
2021/07/16 10:41:38;;;;;;;6.43;3.40;;;;;;;;;;5075126;28;20047;-70
2021/07/16 10:44:04;;;;;;;5.95;3.20;;;;;;;;;;5073610;28;20392;-69
2021/07/16 10:46:34;;;;;;;5.55;3.50;;;;;;;;;;5074793;28;20017;-68
2021/07/16 10:49:01;;;;;;;8.63;4.28;;;;;;;;;;5075211;28;20583;-69
2021/07/16 10:51:29;;;;;;;7.15;3.55;;;;;;;;;;5074222;28;20421;-72
2021/07/16 10:53:56;;;;;;;6.00;3.72;;;;;;;;;;5074529;28;20029;-69
2021/07/16 10:56:36;;;;;;;10.80;5.03;;;;;;;;;;5074526;28;20053;-69
2021/07/16 10:59:02;;;;;;;7.95;5.30;;;;;;;;;;5074208;28;20029;-69
2021/07/16 11:01:32;;;;;;;15.13;5.22;;;;;;;;;;5074699;28;20052;-69
2021/07/16 11:04:01;;;;;;;9.55;4.47;;;;;;;;;;5073199;28;20048;-68
2021/07/16 11:06:48;;;;;;;10.55;5.47;;;;;;;;;;5074010;28;20021;-68
2021/07/16 11:09:31;;;;;;;7.57;4.68;;;;;;;;;;5072870;28;20031;-69
2021/07/16 11:12:17;;;;;;;9.57;5.10;;;;;;;;;;5073610;28;20044;-69
2021/07/16 11:14:44;;;;;;;11.35;5.15;;;;;;;;;;5074168;28;20051;-70
2021/07/16 11:17:11;;;;;;;12.55;4.78;;;;;;;;;;5074189;28;20112;-69
2021/07/16 11:19:38;;;;;;;8.18;5.00;;;;;;;;;;5073860;28;20017;-69
2021/07/16 11:22:05;;;;;;;8.70;5.03;;;;;;;;;;5073084;28;20108;-70
2021/07/16 11:24:32;;;;;;;10.18;5.10;;;;;;;;;;5074045;28;20078;-69
2021/07/16 11:27:08;;;;;;;6.65;4.20;;;;;;;;;;5073646;28;20035;-69
2021/07/16 11:29:39;;;;;;;7.47;4.68;;;;;;;;;;5074081;28;20016;-68
2021/07/16 11:32:10;;;;;;;9.05;5.32;;;;;;;;;;5073997;28;20101;-69
2021/07/16 11:34:37;;;;;;;10.15;5.20;;;;;;;;;;5072126;28;20473;-70
2021/07/16 11:37:03;;;;;;;9.52;4.47;;;;;;;;;;5073787;28;20052;-69
2021/07/16 11:39:31;;;;;;;8.73;4.43;;;;;;;;;;5073627;28;20024;-69
2021/07/16 11:41:58;;;;;;;8.13;4.53;;;;;;;;;;5072288;28;20384;-69
2021/07/16 11:44:27;;;;;;;7.22;4.07;;;;;;;;;;5073972;28;20017;-69
2021/07/16 11:46:55;;;;;;;9.05;4.70;;;;;;;;;;5073571;28;20556;-69
2021/07/16 11:49:29;;;;;;;8.20;3.65;;;;;;;;;;5073273;28;20163;-69
2021/07/16 11:52:02;;;;;;;9.85;4.18;;;;;;;;;;5073464;28;20021;-69
2021/07/16 11:54:29;;;;;;;9.30;3.88;;;;;;;;;;5073491;28;20480;-71
2021/07/16 11:56:56;;;;;;;9.18;3.85;;;;;;;;;;5081387;28;20043;-68
2021/07/16 11:59:23;;;;;;;10.25;4.15;;;;;;;;;;5099839;28;20020;-68
2021/07/16 12:02:10;;;;;;;7.95;3.38;;;;;;;;;;5093126;28;20472;-69
2021/07/16 12:04:37;;;;;;;10.30;4.47;;;;;;;;;;5093470;28;20133;-69
2021/07/16 12:07:03;;;;;;;5.47;3.55;;;;;;;;;;5093060;28;20039;-69
2021/07/16 12:09:34;;;;;;;8.77;4.50;;;;;;;;;;5091561;28;20024;-69
2021/07/16 12:12:02;;;;;;;5.78;3.55;;;;;;;;;;5093083;28;20043;-69
2021/07/16 12:14:28;;;;;;;6.70;4.25;;;;;;;;;;5093102;28;20034;-69
2021/07/16 12:16:55;;;;;;;6.95;3.72;;;;;;;;;;5092700;28;20468;-69
2021/07/16 12:19:22;;;;;;;6.90;3.72;;;;;;;;;;5104744;28;20024;-69
2021/07/16 12:21:48;;;;;;;6.68;3.88;;;;;;;;;;5113032;28;20080;-68
2021/07/16 12:24:15;;;;;;;8.13;3.60;;;;;;;;;;5111874;28;20387;-68
2021/07/16 12:26:41;;;;;;;7.32;4.07;;;;;;;;;;5109177;28;20028;-68
2021/07/16 12:29:11;;;;;;;4.82;3.10;;;;;;;;;;5112810;28;20055;-67
2021/07/16 12:31:37;;;;;;;10.77;4.25;;;;;;;;;;5112710;28;20102;-68
2021/07/16 12:34:20;;;;;;;7.78;3.70;;;;;;;;;;5111971;28;20369;-69
2021/07/16 12:36:49;;;;;;;9.27;4.10;;;;;;;;;;5111555;28;20020;-68
2021/07/16 12:39:23;;;;;;;5.18;3.08;;;;;;;;;;5111757;28;20020;-68
2021/07/16 12:41:50;;;;;;;6.75;3.83;;;;;;;;;;5111836;28;20023;-69
2021/07/16 12:44:16;;;;;;;9.40;3.67;;;;;;;;;;5110481;28;20020;-69
2021/07/16 12:46:43;;;;;;;9.60;3.85;;;;;;;;;;5112231;28;20066;-69
2021/07/16 12:49:10;;;;;;;7.05;3.88;;;;;;;;;;5112904;28;20019;-69
2021/07/16 12:51:40;;;;;;;7.68;3.58;;;;;;;;;;5112474;28;20036;-69
2021/07/16 12:54:16;;;;;;;8.93;3.75;;;;;;;;;;5112943;28;20394;-69
2021/07/16 12:56:42;;;;;;;7.57;4.18;;;;;;;;;;5112863;28;20019;-68
2021/07/16 12:59:25;;;;;;;6.50;3.70;;;;;;;;;;5112576;28;20023;-67
2021/07/16 13:01:52;;;;;;;8.40;4.20;;;;;;;;;;5113095;28;20456;-66
2021/07/16 13:04:19;;;;;;;7.43;4.00;;;;;;;;;;5113106;28;20012;-67
2021/07/16 13:06:46;;;;;;;4.95;3.05;;;;;;;;;;5112671;28;20023;-68
2021/07/16 13:09:15;;;;;;;7.95;3.38;;;;;;;;;;5112941;28;20296;-68
2021/07/16 13:11:42;;;;;;;13.63;4.47;;;;;;;;;;5112327;28;20114;-69
2021/07/16 13:14:21;;;;;;;11.82;4.90;;;;;;;;;;5112897;28;20030;-68
2021/07/16 13:16:47;;;;;;;10.82;4.30;;;;;;;;;;5112844;28;20028;-69
2021/07/16 13:19:13;;;;;;;7.25;3.92;;;;;;;;;;5112382;28;20023;-67
2021/07/16 13:21:39;;;;;;;8.77;4.00;;;;;;;;;;5112925;28;20035;-68
2021/07/16 13:24:06;;;;;;;10.27;3.85;;;;;;;;;;5111691;28;20379;-68
2021/07/16 13:26:34;;;;;;;6.10;3.35;;;;;;;;;;5111239;28;20511;-68
2021/07/16 13:29:03;;;;;;;6.00;3.15;;;;;;;;;;5094161;28;20431;-68
2021/07/16 13:31:30;;;;;;;7.53;3.30;;;;;;;;;;5072123;28;20046;-69
2021/07/16 13:33:57;;;;;;;5.93;3.78;;;;;;;;;;5089188;28;20048;-69
2021/07/16 13:36:23;;;;;;;7.30;3.78;;;;;;;;;;5076165;28;20025;-69
2021/07/16 13:38:49;;;;;;;6.18;3.88;;;;;;;;;;5076055;28;20468;-68
2021/07/16 13:41:15;;;;;;;8.48;3.83;;;;;;;;;;5075743;28;20024;-69
2021/07/16 13:43:42;;;;;;;10.60;3.88;;;;;;;;;;5076107;28;20050;-68
2021/07/16 13:46:08;;;;;;;7.00;3.85;;;;;;;;;;5076042;28;20017;-70
2021/07/16 13:48:34;;;;;;;7.65;3.78;;;;;;;;;;5075582;28;20437;-69
2021/07/16 13:51:01;;;;;;;5.65;3.58;;;;;;;;;;5075529;28;20028;-70
2021/07/16 13:53:27;;;;;;;6.35;3.28;;;;;;;;;;5075695;28;20044;-69
2021/07/16 13:55:53;;;;;;;6.95;3.78;;;;;;;;;;5103295;28;20023;-68
2021/07/16 13:58:19;;;;;;;5.93;3.53;;;;;;;;;;5114445;28;20031;-68
2021/07/16 14:00:46;;;;;;;7.68;4.18;;;;;;;;;;5114195;28;20410;-69
2021/07/16 14:03:12;;;;;;;7.85;3.78;;;;;;;;;;5115043;28;20020;-69
2021/07/16 14:05:38;;;;;;;11.00;3.83;;;;;;;;;;5114079;28;20383;-67
2021/07/16 14:08:04;;;;;;;6.82;3.30;;;;;;;;;;5115279;28;20053;-69
2021/07/16 14:10:30;;;;;;;10.10;3.70;;;;;;;;;;5115588;28;20041;-70
2021/07/16 14:12:57;;;;;;;7.03;3.70;;;;;;;;;;5116010;28;20082;-69
2021/07/16 14:15:23;;;;;;;6.60;3.40;;;;;;;;;;5114864;28;20040;-69
2021/07/16 14:17:51;;;;;;;6.72;3.80;;;;;;;;;;5116153;28;20023;-70
2021/07/16 14:20:18;;;;;;;7.95;3.72;;;;;;;;;;5116034;28;20027;-68
2021/07/16 14:22:44;;;;;;;6.47;3.75;;;;;;;;;;5116387;28;20091;-69
2021/07/16 14:25:11;;;;;;;7.72;3.40;;;;;;;;;;5116471;28;20502;-69
2021/07/16 14:27:38;;;;;;;7.45;3.47;;;;;;;;;;5116042;28;20023;-69
2021/07/16 14:30:09;;;;;;;8.50;3.67;;;;;;;;;;5115036;28;20027;-68
2021/07/16 14:32:35;;;;;;;8.38;3.50;;;;;;;;;;5114525;28;20031;-69
2021/07/16 14:35:06;;;;;;;9.02;3.53;;;;;;;;;;5115747;28;20497;-68
2021/07/16 14:37:32;;;;;;;6.20;3.53;;;;;;;;;;5115552;28;20023;-69
2021/07/16 14:40:00;;;;;;;7.93;3.47;;;;;;;;;;5115770;28;20020;-68
2021/07/16 14:42:27;;;;;;;8.15;4.53;;;;;;;;;;5114284;28;20048;-68
2021/07/16 14:44:58;;;;;;;7.13;3.85;;;;;;;;;;5114938;28;20473;-68
2021/07/16 14:47:24;;;;;;;5.80;3.10;;;;;;;;;;5115774;28;20024;-68
2021/07/16 14:49:51;;;;;;;7.68;3.42;;;;;;;;;;5115223;28;20464;-67
2021/07/16 14:52:17;;;;;;;9.57;4.78;;;;;;;;;;5115344;28;20036;-67
2021/07/16 14:54:43;;;;;;;7.72;3.60;;;;;;;;;;5115362;28;20028;-68